createdAt,value
2022-09-16T00:00:49.304Z,72.16
2022-09-16T00:03:18.124Z,71.92
2022-09-16T00:05:47.381Z,72.11
2022-09-16T00:08:15.280Z,71.72
2022-09-16T00:10:43.864Z,72.00
2022-09-16T00:13:12.627Z,71.89
2022-09-16T00:15:49.240Z,72.13
2022-09-16T00:18:16.386Z,71.73
2022-09-16T00:20:49.226Z,71.80
2022-09-16T00:23:16.991Z,71.99
2022-09-16T00:25:44.142Z,71.82
2022-09-16T00:28:11.118Z,72.37
2022-09-16T00:30:38.202Z,72.52
2022-09-16T00:33:05.519Z,72.25
2022-09-16T00:35:32.708Z,72.65
2022-09-16T00:37:59.728Z,72.21
2022-09-16T00:40:27.137Z,72.33
2022-09-16T00:42:54.250Z,72.48
2022-09-16T00:45:23.918Z,72.13
2022-09-16T00:48:01.889Z,72.46
2022-09-16T00:50:48.441Z,72.46
2022-09-16T00:53:22.901Z,72.48
2022-09-16T00:55:54.186Z,72.83
2022-09-16T00:58:31.699Z,72.74
2022-09-16T01:00:59.015Z,72.61
2022-09-16T01:03:28.023Z,72.38
2022-09-16T01:05:55.689Z,72.58
2022-09-16T01:08:22.798Z,72.64
2022-09-16T01:10:49.892Z,72.86
2022-09-16T01:13:17.127Z,73.17
2022-09-16T01:15:59.015Z,73.23
2022-09-16T01:18:51.944Z,73.65
2022-09-16T01:21:25.656Z,72.77
2022-09-16T01:24:04.157Z,73.36
2022-09-16T01:26:48.894Z,73.89
2022-09-16T01:29:53.202Z,73.98
2022-09-16T01:32:41.837Z,74.15
2022-09-16T01:35:19.250Z,73.68
2022-09-16T01:38:04.307Z,73.40
2022-09-16T01:40:54.486Z,73.44
2022-09-16T01:43:31.793Z,73.83
2022-09-16T01:46:15.559Z,73.70
2022-09-16T01:48:53.705Z,73.67
2022-09-16T01:51:20.964Z,73.45
2022-09-16T01:54:07.209Z,73.46
2022-09-16T01:56:52.955Z,73.74
2022-09-16T01:59:25.723Z,73.43
2022-09-16T02:01:59.396Z,73.26
2022-09-16T02:04:36.089Z,73.24
2022-09-16T02:07:08.531Z,73.42
2022-09-16T02:09:41.486Z,73.56
2022-09-16T02:12:14.831Z,73.35
2022-09-16T02:14:45.480Z,73.09
2022-09-16T02:17:16.630Z,73.01
2022-09-16T02:19:48.189Z,73.53
2022-09-16T02:22:35.184Z,73.57
2022-09-16T02:25:05.235Z,73.88
2022-09-16T02:27:32.877Z,73.78
2022-09-16T02:30:06.015Z,73.66
2022-09-16T02:32:37.176Z,73.79
2022-09-16T02:35:06.506Z,73.97
2022-09-16T02:37:41.103Z,74.22
2022-09-16T02:40:22.768Z,74.39
2022-09-16T02:42:50.273Z,74.33
2022-09-16T02:45:17.690Z,74.38
2022-09-16T02:48:13.198Z,74.60
2022-09-16T02:50:52.402Z,74.56
2022-09-16T02:53:35.613Z,74.70
2022-09-16T02:56:09.880Z,74.82
2022-09-16T02:58:36.949Z,74.85
2022-09-16T03:01:04.369Z,74.37
2022-09-16T03:03:31.548Z,74.76
2022-09-16T03:06:04.991Z,74.36
2022-09-16T03:08:34.021Z,74.33
2022-09-16T03:11:33.182Z,74.31
2022-09-16T03:14:09.319Z,74.47
2022-09-16T03:17:04.469Z,74.49
2022-09-16T03:19:53.437Z,74.25
2022-09-16T03:22:43.200Z,74.40
2022-09-16T03:25:30.460Z,74.22
2022-09-16T03:28:07.649Z,74.15
2022-09-16T03:30:53.625Z,73.98
2022-09-16T03:33:41.788Z,74.28
2022-09-16T03:36:12.644Z,74.39
2022-09-16T03:38:41.987Z,74.30
2022-09-16T03:41:10.584Z,74.42
2022-09-16T03:43:37.664Z,74.01
2022-09-16T03:46:11.171Z,74.28
2022-09-16T03:48:38.223Z,74.11
2022-09-16T03:51:05.448Z,74.11
2022-09-16T03:53:32.406Z,74.65
2022-09-16T03:55:59.474Z,74.34
2022-09-16T03:58:26.519Z,74.61
2022-09-16T04:00:54.111Z,74.46
2022-09-16T04:03:21.153Z,74.41
2022-09-16T04:05:57.904Z,74.57
2022-09-16T04:08:25.234Z,74.75
2022-09-16T04:10:57.485Z,74.72
2022-09-16T04:13:24.585Z,74.70
2022-09-16T04:15:52.170Z,74.83
2022-09-16T04:18:19.320Z,74.90
2022-09-16T04:20:47.930Z,74.59
2022-09-16T04:23:15.061Z,74.79
2022-09-16T04:25:42.309Z,74.67
2022-09-16T04:28:09.258Z,74.65
2022-09-16T04:30:36.825Z,74.74
2022-09-16T04:33:03.926Z,74.49
2022-09-16T04:35:31.022Z,74.51
2022-09-16T04:37:58.655Z,74.26
2022-09-16T04:40:25.757Z,74.07
2022-09-16T04:42:52.745Z,74.43
2022-09-16T04:45:20.293Z,74.25
2022-09-16T04:47:47.415Z,74.09
2022-09-16T04:50:14.512Z,74.19
2022-09-16T04:52:41.615Z,74.15
2022-09-16T04:55:09.037Z,74.26
2022-09-16T04:57:37.692Z,73.85
2022-09-16T05:00:05.148Z,73.93
2022-09-16T05:02:32.277Z,73.99
2022-09-16T05:04:59.256Z,74.09
2022-09-16T05:07:27.795Z,74.19
2022-09-16T05:09:55.000Z,73.88
2022-09-16T05:12:22.283Z,73.79
2022-09-16T05:14:49.216Z,73.77
2022-09-16T05:17:33.081Z,73.75
2022-09-16T05:20:04.120Z,73.89
2022-09-16T05:22:32.347Z,73.81
2022-09-16T05:24:59.472Z,73.67
2022-09-16T05:27:28.210Z,73.59
2022-09-16T05:29:55.365Z,73.73
2022-09-16T05:32:22.355Z,73.51
2022-09-16T05:34:50.595Z,73.34
2022-09-16T05:37:18.043Z,73.30
2022-09-16T05:39:45.237Z,73.15
2022-09-16T05:42:12.289Z,73.30
2022-09-16T05:44:39.379Z,72.99
2022-09-16T05:47:06.783Z,73.36
2022-09-16T05:49:33.763Z,72.94
2022-09-16T05:52:00.690Z,73.07
2022-09-16T05:54:28.093Z,73.08
2022-09-16T05:56:55.045Z,72.66
2022-09-16T05:59:23.950Z,72.86
2022-09-16T06:01:51.006Z,72.84
2022-09-16T06:04:18.050Z,72.77
2022-09-16T06:06:46.921Z,72.96
2022-09-16T06:09:15.859Z,72.99
2022-09-16T06:11:45.523Z,72.84
2022-09-16T06:14:13.415Z,72.93
2022-09-16T06:16:40.658Z,72.57
2022-09-16T06:19:13.297Z,72.71
2022-09-16T06:21:43.822Z,72.65
2022-09-16T06:24:12.364Z,72.84
2022-09-16T06:26:41.243Z,72.48
2022-09-16T06:29:09.565Z,72.50
2022-09-16T06:31:37.797Z,72.44
2022-09-16T06:34:05.701Z,72.30
2022-09-16T06:36:42.757Z,72.30
2022-09-16T06:39:14.015Z,72.21
2022-09-16T06:41:41.320Z,72.16
2022-09-16T06:44:08.376Z,71.85
2022-09-16T06:46:35.531Z,71.89
2022-09-16T06:49:05.743Z,72.07
2022-09-16T06:51:34.666Z,72.32
2022-09-16T06:54:04.571Z,72.65
2022-09-16T06:56:32.051Z,72.03
2022-09-16T06:58:58.994Z,71.77
2022-09-16T07:01:29.407Z,71.45
2022-09-16T07:03:58.750Z,71.15
2022-09-16T07:09:17.216Z,71.76
2022-09-16T07:11:44.121Z,71.49
2022-09-16T07:14:11.333Z,71.41
2022-09-16T07:16:38.413Z,71.36
2022-09-16T07:19:05.551Z,71.36
2022-09-16T07:21:32.950Z,71.43
2022-09-16T07:24:01.808Z,71.32
2022-09-16T07:26:32.096Z,71.27
2022-09-16T07:29:02.222Z,70.84
2022-09-16T07:31:32.508Z,70.54
2022-09-16T07:34:04.237Z,70.46
2022-09-16T07:36:38.287Z,70.34
2022-09-16T07:39:06.584Z,70.14
2022-09-16T07:41:39.778Z,70.00
2022-09-16T07:44:08.377Z,69.71
2022-09-16T07:46:36.946Z,69.40
2022-09-16T07:49:07.123Z,69.47
2022-09-16T07:51:34.676Z,69.15
2022-09-16T07:54:07.399Z,69.40
2022-09-16T07:56:37.235Z,69.31
2022-09-16T07:59:08.243Z,69.09
2022-09-16T08:01:37.854Z,69.19
2022-09-16T08:04:07.110Z,68.81
2022-09-16T08:06:38.359Z,69.20
2022-09-16T08:09:27.210Z,68.45
2022-09-16T08:11:52.656Z,68.42
2022-09-16T08:14:19.725Z,67.96
2022-09-16T08:16:47.017Z,67.76
2022-09-16T08:19:14.308Z,66.98
2022-09-16T08:21:41.353Z,66.57
2022-09-16T08:24:10.353Z,66.65
2022-09-16T08:26:37.446Z,66.35
2022-09-16T08:29:09.039Z,65.99
2022-09-16T08:31:37.972Z,65.79
2022-09-16T08:34:05.731Z,65.08
2022-09-16T08:36:33.959Z,64.67
2022-09-16T08:39:01.843Z,64.93
2022-09-16T08:42:02.632Z,64.81
2022-09-16T08:44:35.494Z,64.32
2022-09-16T08:47:06.818Z,64.44
2022-09-16T08:49:50.698Z,64.20
2022-09-16T08:52:37.001Z,63.53
2022-09-16T08:55:19.076Z,61.76
2022-09-16T08:57:57.028Z,62.72
2022-09-16T09:00:24.448Z,61.50
2022-09-16T09:03:01.523Z,60.46
2022-09-16T09:05:40.837Z,60.98
2022-09-16T09:08:21.478Z,60.84
2022-09-16T09:10:57.592Z,60.79
2022-09-16T09:13:37.070Z,60.66
2022-09-16T09:16:38.966Z,59.41
2022-09-16T09:19:18.488Z,60.01
2022-09-16T09:22:16.703Z,59.99
2022-09-16T09:24:56.958Z,60.22
2022-09-16T09:27:31.287Z,58.93
2022-09-16T09:30:25.568Z,59.38
2022-09-16T09:33:34.111Z,59.36
2022-09-16T09:36:19.521Z,60.01
2022-09-16T09:39:15.153Z,59.28
2022-09-16T09:42:05.235Z,60.31
2022-09-16T09:45:04.121Z,60.34
2022-09-16T09:47:55.297Z,60.57
2022-09-16T09:50:29.816Z,60.37
2022-09-16T09:53:20.562Z,59.32
2022-09-16T09:55:47.985Z,59.86
2022-09-16T09:58:41.247Z,59.98
2022-09-16T10:01:09.611Z,59.36
2022-09-16T10:03:38.134Z,59.28
2022-09-16T10:06:05.409Z,59.32
2022-09-16T10:08:44.864Z,58.77
2022-09-16T10:11:24.129Z,59.57
2022-09-16T10:14:02.478Z,59.71
2022-09-16T10:16:33.253Z,59.57
2022-09-16T10:19:41.048Z,59.77
2022-09-16T10:22:30.409Z,60.33
2022-09-16T10:25:08.050Z,60.14
2022-09-16T10:27:38.248Z,60.04
2022-09-16T10:30:19.135Z,59.49
2022-09-16T10:33:00.646Z,59.27
2022-09-16T10:35:30.309Z,58.67
2022-09-16T10:38:04.087Z,58.37
2022-09-16T10:40:32.142Z,58.12
2022-09-16T10:43:14.454Z,58.41
2022-09-16T10:45:49.541Z,58.40
2022-09-16T10:48:20.227Z,57.87
2022-09-16T10:50:58.436Z,58.09
2022-09-16T10:53:44.024Z,58.11
2022-09-16T10:56:20.770Z,58.11
2022-09-16T10:58:47.944Z,57.93
2022-09-16T11:01:27.546Z,58.19
2022-09-16T11:04:22.025Z,58.08
2022-09-16T11:07:07.989Z,57.88
2022-09-16T11:09:54.610Z,57.55
2022-09-16T11:12:51.182Z,57.11
2022-09-16T11:15:24.162Z,57.48
2022-09-16T11:18:10.820Z,57.27
2022-09-16T11:21:15.525Z,57.58
2022-09-16T11:24:21.525Z,57.27
2022-09-16T11:27:06.867Z,56.71
2022-09-16T11:29:55.840Z,56.25
2022-09-16T11:33:04.157Z,56.12
2022-09-16T11:35:49.639Z,57.13
2022-09-16T11:38:22.885Z,56.49
2022-09-16T11:41:08.059Z,56.85
2022-09-16T11:44:01.856Z,56.60
2022-09-16T11:46:47.021Z,57.04
2022-09-16T11:49:51.275Z,56.44
2022-09-16T11:52:42.826Z,57.26
2022-09-16T11:55:26.515Z,57.16
2022-09-16T11:58:02.200Z,57.04
2022-09-16T12:00:34.083Z,57.11
2022-09-16T12:03:19.825Z,57.15
2022-09-16T12:05:53.789Z,57.37
2022-09-16T12:08:40.446Z,57.88
2022-09-16T12:11:36.850Z,57.80
2022-09-16T12:14:24.580Z,58.39
2022-09-16T12:16:59.269Z,58.86
2022-09-16T12:19:36.553Z,59.18
2022-09-16T12:22:27.820Z,59.84
2022-09-16T12:25:12.757Z,59.99
2022-09-16T12:27:55.803Z,60.17
2022-09-16T12:30:29.415Z,60.51
2022-09-16T12:33:03.011Z,60.58
2022-09-16T12:35:37.708Z,60.59
2022-09-16T12:38:05.540Z,61.14
2022-09-16T12:40:49.561Z,61.64
2022-09-16T12:43:54.847Z,61.90
2022-09-16T12:47:04.788Z,62.45
2022-09-16T12:49:46.844Z,63.57
2022-09-16T12:52:25.622Z,64.39
2022-09-16T12:55:26.756Z,64.26
2022-09-16T12:58:30.011Z,64.41
2022-09-16T13:01:24.804Z,65.99
2022-09-16T13:04:04.642Z,66.25
2022-09-16T13:06:36.704Z,67.37
2022-09-16T13:09:22.226Z,69.47
2022-09-16T13:14:56.641Z,68.63
2022-09-16T13:17:33.018Z,69.31
2022-09-16T13:20:20.338Z,69.19
2022-09-16T13:23:02.432Z,69.95
2022-09-16T13:25:50.809Z,70.65
2022-09-16T13:28:38.417Z,70.46
2022-09-16T13:31:11.453Z,70.66
2022-09-16T13:33:40.271Z,70.96
2022-09-16T13:36:31.636Z,71.40
2022-09-16T13:39:10.854Z,71.33
2022-09-16T13:41:42.461Z,71.26
2022-09-16T13:44:27.981Z,71.80
2022-09-16T13:46:55.128Z,71.57
2022-09-16T13:49:27.868Z,71.77
2022-09-16T13:51:55.353Z,72.13
2022-09-16T13:54:22.391Z,72.32
2022-09-16T13:57:24.161Z,73.50
2022-09-16T14:00:00.492Z,72.94
2022-09-16T14:02:40.410Z,72.50
2022-09-16T14:05:29.912Z,72.57
2022-09-16T14:08:07.264Z,72.27
2022-09-16T14:10:37.175Z,71.65
2022-09-16T14:13:11.337Z,71.75
2022-09-16T14:15:47.164Z,71.57
2022-09-16T14:18:20.641Z,71.81
2022-09-16T14:21:03.506Z,71.77
2022-09-16T14:23:33.206Z,71.76
2022-09-16T14:26:14.722Z,71.84
2022-09-16T14:28:42.144Z,71.71
2022-09-16T14:31:16.066Z,71.85
2022-09-16T14:33:56.527Z,72.09
2022-09-16T14:36:31.605Z,72.30
2022-09-16T14:39:12.503Z,72.54
2022-09-16T14:41:58.676Z,72.55
2022-09-16T14:44:37.543Z,72.51
2022-09-16T14:47:21.144Z,72.86
2022-09-16T14:50:24.475Z,72.69
2022-09-16T14:52:57.670Z,72.47
2022-09-16T14:55:31.668Z,72.61
2022-09-16T14:58:00.446Z,72.60
2022-09-16T15:00:39.598Z,73.26
2022-09-16T15:03:41.299Z,73.38
2022-09-16T15:06:15.556Z,72.84
2022-09-16T15:08:47.761Z,72.68
2022-09-16T15:11:47.046Z,72.83
2022-09-16T15:14:17.250Z,72.87
2022-09-16T15:16:49.076Z,72.73
2022-09-16T15:19:22.154Z,72.54
2022-09-16T15:21:50.976Z,73.09
2022-09-16T15:24:23.181Z,72.68
2022-09-16T15:26:50.887Z,72.65
2022-09-16T15:29:18.273Z,72.82
2022-09-16T15:31:46.707Z,72.90
2022-09-16T15:34:21.350Z,72.94
2022-09-16T15:36:54.079Z,73.22
2022-09-16T15:39:24.112Z,72.83
2022-09-16T15:42:12.805Z,73.49
2022-09-16T15:44:51.070Z,73.95
2022-09-16T15:47:35.113Z,74.00
2022-09-16T15:50:07.811Z,73.77
2022-09-16T15:52:55.710Z,73.87
2022-09-16T15:55:53.012Z,73.40
2022-09-16T15:58:34.371Z,73.39
2022-09-16T16:01:11.934Z,73.90
2022-09-16T16:03:57.740Z,73.98
2022-09-16T16:06:55.718Z,74.17
2022-09-16T16:09:28.616Z,73.96
2022-09-16T16:12:00.056Z,73.98
2022-09-16T16:14:34.563Z,74.07
2022-09-16T16:17:13.803Z,74.12
2022-09-16T16:19:43.592Z,74.32
2022-09-16T16:22:11.528Z,74.60
2022-09-16T16:24:39.032Z,74.92
2022-09-16T16:27:08.574Z,74.90
2022-09-16T16:29:36.106Z,75.21
2022-09-16T16:32:08.164Z,75.03
2022-09-16T16:34:38.272Z,75.05
2022-09-16T16:37:07.284Z,75.28
2022-09-16T16:39:38.531Z,75.07
2022-09-16T16:42:06.478Z,75.52
2022-09-16T16:44:34.413Z,75.19
2022-09-16T16:47:02.252Z,75.42
2022-09-16T16:49:29.897Z,75.41
2022-09-16T16:51:58.078Z,75.27
2022-09-16T16:54:25.617Z,75.62
2022-09-16T16:56:54.010Z,75.44
2022-09-16T16:59:22.302Z,75.33
2022-09-16T17:01:52.766Z,75.17
2022-09-16T17:04:21.231Z,75.49
2022-09-16T17:07:02.635Z,75.61
2022-09-16T17:09:36.090Z,75.53
2022-09-16T17:12:04.645Z,75.57
2022-09-16T17:14:33.507Z,75.52
2022-09-16T17:17:07.165Z,75.34
2022-09-16T17:19:57.389Z,75.49
2022-09-16T17:22:27.034Z,75.95
2022-09-16T17:24:54.834Z,75.98
2022-09-16T17:27:25.153Z,75.88
2022-09-16T17:29:53.199Z,76.21
2022-09-16T17:32:20.766Z,76.08
2022-09-16T17:34:48.495Z,76.03
2022-09-16T17:37:17.294Z,76.37
2022-09-16T17:39:44.481Z,75.88
2022-09-16T17:42:12.279Z,76.33
2022-09-16T17:44:39.613Z,75.91
2022-09-16T17:47:06.968Z,75.84
2022-09-16T17:49:34.185Z,76.33
2022-09-16T17:52:01.735Z,76.31
2022-09-16T17:54:29.033Z,76.63
2022-09-16T17:56:58.776Z,76.15
2022-09-16T17:59:25.990Z,76.66
2022-09-16T18:01:53.710Z,76.85
2022-09-16T18:04:21.248Z,76.36
2022-09-16T18:06:52.061Z,76.54
2022-09-16T18:09:19.194Z,76.74
2022-09-16T18:11:46.954Z,76.89
2022-09-16T18:14:16.467Z,76.66
2022-09-16T18:16:46.047Z,76.86
2022-09-16T18:19:13.652Z,76.87
2022-09-16T18:21:40.811Z,76.88
2022-09-16T18:24:13.239Z,77.32
2022-09-16T18:26:43.909Z,77.26
2022-09-16T18:29:13.542Z,77.19
2022-09-16T18:31:44.888Z,77.26
2022-09-16T18:34:13.111Z,77.55
2022-09-16T18:36:40.831Z,77.33
2022-09-16T18:39:13.643Z,77.22
2022-09-16T18:41:42.644Z,77.47
2022-09-16T18:44:21.459Z,77.35
2022-09-16T18:46:48.800Z,77.04
2022-09-16T18:49:18.214Z,77.21
2022-09-16T18:51:51.308Z,77.11
2022-09-16T18:54:29.576Z,77.64
2022-09-16T18:56:59.186Z,77.46
2022-09-16T18:59:29.313Z,77.68
2022-09-16T19:01:58.967Z,77.89
2022-09-16T19:04:29.908Z,77.87
2022-09-16T19:07:06.114Z,77.82
2022-09-16T19:09:36.568Z,77.79
2022-09-16T19:12:04.332Z,77.79
2022-09-16T19:14:31.556Z,77.83
2022-09-16T19:16:59.431Z,77.93
2022-09-16T19:19:27.082Z,77.75
2022-09-16T19:21:54.575Z,77.63
2022-09-16T19:24:23.589Z,77.82
2022-09-16T19:26:54.445Z,77.58
2022-09-16T19:29:22.366Z,77.99
2022-09-16T19:31:52.818Z,77.73
2022-09-16T19:34:21.479Z,77.88
2022-09-16T19:36:49.441Z,78.02
2022-09-16T19:39:17.360Z,77.91
2022-09-16T19:41:45.294Z,77.68
2022-09-16T19:44:15.740Z,77.89
2022-09-16T19:46:44.927Z,77.83
2022-09-16T19:49:18.604Z,77.54
2022-09-16T19:51:46.144Z,77.50
2022-09-16T19:54:13.301Z,77.56
2022-09-16T19:56:40.477Z,77.52
2022-09-16T19:59:08.235Z,77.11
2022-09-16T20:01:36.741Z,77.22
2022-09-16T20:04:10.556Z,77.35
2022-09-16T20:06:40.041Z,77.22
2022-09-16T20:09:11.539Z,77.46
2022-09-16T20:11:44.701Z,77.38
2022-09-16T20:14:22.039Z,77.73
2022-09-16T20:16:50.665Z,77.57
2022-09-16T20:19:20.950Z,77.42
2022-09-16T20:21:48.022Z,77.64
2022-09-16T20:24:20.946Z,77.42
2022-09-16T20:26:49.847Z,77.41
2022-09-16T20:29:18.571Z,77.22
2022-09-16T20:31:47.238Z,77.25
2022-09-16T20:34:16.354Z,77.33
2022-09-16T20:36:44.954Z,77.21
2022-09-16T20:39:13.459Z,77.30
2022-09-16T20:41:41.590Z,77.43
2022-09-16T20:44:13.666Z,77.71
2022-09-16T20:46:40.658Z,77.54
2022-09-16T20:49:12.567Z,77.81
2022-09-16T20:51:39.525Z,77.64
2022-09-16T20:54:12.258Z,77.85
2022-09-16T20:56:41.082Z,77.79
2022-09-16T20:59:10.049Z,77.75
2022-09-16T21:01:38.899Z,78.03
2022-09-16T21:04:08.765Z,78.09
2022-09-16T21:06:36.759Z,77.98
2022-09-16T21:09:09.706Z,77.90
2022-09-16T21:11:38.070Z,77.70
2022-09-16T21:14:07.445Z,78.00
2022-09-16T21:16:36.728Z,77.94
2022-09-16T21:19:09.353Z,78.03
2022-09-16T21:21:39.193Z,78.06
2022-09-16T21:24:07.373Z,78.08
2022-09-16T21:26:36.682Z,77.95
2022-09-16T21:29:06.738Z,77.94
2022-09-16T21:31:34.332Z,77.62
2022-09-16T21:34:04.690Z,77.82
2022-09-16T21:36:31.912Z,78.08
2022-09-16T21:38:59.374Z,78.06
2022-09-16T21:41:26.810Z,78.26
2022-09-16T21:43:55.962Z,78.27
2022-09-16T21:46:28.561Z,78.20
2022-09-16T21:49:01.385Z,78.23
2022-09-16T21:51:35.433Z,78.13
2022-09-16T21:54:08.281Z,78.34
2022-09-16T21:56:40.652Z,78.37
2022-09-16T21:59:09.081Z,78.45
2022-09-16T22:01:37.075Z,78.39
2022-09-16T22:04:06.973Z,78.57
2022-09-16T22:06:34.290Z,78.68
2022-09-16T22:09:03.247Z,78.70
2022-09-16T22:11:32.703Z,78.44
2022-09-16T22:14:00.868Z,78.24
2022-09-16T22:16:30.723Z,78.21
2022-09-16T22:19:24.075Z,78.34
2022-09-16T22:21:51.649Z,77.93
2022-09-16T22:24:22.124Z,77.78
2022-09-16T22:26:51.317Z,77.75
2022-09-16T22:29:18.950Z,77.85
2022-09-16T22:31:46.269Z,77.77
2022-09-16T22:34:13.379Z,77.73
2022-09-16T22:36:40.598Z,77.57
2022-09-16T22:39:14.782Z,77.58
2022-09-16T22:41:43.152Z,77.71
2022-09-16T22:44:10.145Z,77.59
2022-09-16T22:46:46.384Z,77.67
2022-09-16T22:49:14.998Z,77.56
2022-09-16T22:51:59.525Z,77.65
2022-09-16T22:54:37.875Z,77.60
2022-09-16T22:57:04.902Z,77.41
2022-09-16T22:59:31.869Z,77.33
2022-09-16T23:02:02.055Z,77.42
2022-09-16T23:04:29.484Z,77.41
2022-09-16T23:06:56.575Z,77.68
2022-09-16T23:09:23.747Z,77.41
2022-09-16T23:11:50.854Z,77.46
2022-09-16T23:14:24.848Z,77.37
2022-09-16T23:16:53.879Z,77.44
2022-09-16T23:19:22.668Z,77.72
2022-09-16T23:21:52.750Z,77.79
2022-09-16T23:24:21.927Z,77.57
2022-09-16T23:26:49.378Z,77.70
2022-09-16T23:29:18.478Z,77.50
2022-09-16T23:31:45.826Z,77.63
2022-09-16T23:34:22.414Z,77.66
2022-09-16T23:36:49.887Z,77.24
2022-09-16T23:39:18.012Z,76.95
2022-09-16T23:41:45.761Z,76.95
2022-09-16T23:44:15.055Z,77.04
2022-09-16T23:46:42.591Z,77.25
2022-09-16T23:49:10.420Z,77.36
2022-09-16T23:51:37.744Z,77.21
2022-09-16T23:54:05.166Z,77.03
2022-09-16T23:56:32.821Z,76.98
2022-09-16T23:59:00.987Z,76.86
